Time;durP1;ratioP1;P1;durP2;ratioP2;P2;SDS_P1;SDS_P2;PMS_P1;PMS_P2;Temp;Humidity;BMP_temperature;BMP_pressure;BME280_temperature;BME280_humidity;BME280_pressure;Samples;Min_cycle;Max_cycle;Signal;HPM_P1;HPM_P2
2021/07/30 05:10:00;;;;;;;16.55;8.00;;;;;;;36.75;34.09;100257.13;1830166;76;28501;-70
2021/07/30 05:12:34;;;;;;;11.78;8.03;;;;;;;36.95;33.13;100249.02;1799030;77;21273;-74
2021/07/30 05:15:09;;;;;;;15.63;7.72;;;;;;;37.10;32.41;100248.64;1776097;79;21334;-72
2021/07/30 05:17:42;;;;;;;13.22;7.53;;;;;;;36.98;32.38;100247.85;1797092;77;21292;-73
2021/07/30 05:20:15;;;;;;;13.95;7.92;;;;;;;36.97;32.41;100245.45;1793563;77;21284;-74
2021/07/30 05:22:49;;;;;;;22.30;8.60;;;;;;;37.26;32.32;100240.30;1782115;79;21293;-74
2021/07/30 05:25:22;;;;;;;12.25;7.62;;;;;;;37.76;31.51;100240.33;1770437;79;21227;-73
2021/07/30 05:27:55;;;;;;;15.85;7.20;;;;;;;38.28;30.66;100233.13;1768478;79;21185;-73
2021/07/30 05:30:29;;;;;;;12.25;7.60;;;;;;;38.67;29.88;100222.58;1763706;79;21323;-72
2021/07/30 05:33:04;;;;;;;13.48;7.65;;;;;;;39.14;29.33;100217.23;1736668;80;21893;-74
2021/07/30 05:35:38;;;;;;;11.53;7.00;;;;;;;39.63;28.63;100214.69;1711757;81;21272;-73
2021/07/30 05:38:12;;;;;;;16.62;7.00;;;;;;;40.04;27.97;100218.67;1730363;81;21205;-74
2021/07/30 05:40:45;;;;;;;10.00;6.45;;;;;;;40.47;27.25;100217.83;1723242;82;21877;-75
2021/07/30 05:43:19;;;;;;;15.50;6.20;;;;;;;40.89;26.56;100216.64;1734527;80;21290;-75
2021/07/30 05:45:58;;;;;;;13.03;6.22;;;;;;;41.15;25.85;100203.22;1699887;82;21314;-74
2021/07/30 05:48:32;;;;;;;13.32;6.65;;;;;;;41.39;25.30;100207.41;1716579;82;21391;-74
2021/07/30 05:51:06;;;;;;;10.90;6.08;;;;;;;41.68;25.33;100208.55;1714468;82;21469;-73
2021/07/30 05:53:41;;;;;;;16.55;7.22;;;;;;;41.99;24.74;100214.27;1715617;81;21337;-76
2021/07/30 05:56:13;;;;;;;23.12;8.68;;;;;;;42.17;24.42;100212.91;1727637;81;21220;-69
2021/07/30 05:58:48;;;;;;;14.10;7.83;;;;;;;42.34;24.56;100212.41;1724459;81;21394;-69
2021/07/30 06:01:21;;;;;;;14.93;7.50;;;;;;;42.45;24.26;100214.31;1722980;81;21209;-74
2021/07/30 06:03:56;;;;;;;9.80;6.20;;;;;;;42.57;24.09;100207.41;1722195;81;21303;-75
2021/07/30 06:06:29;;;;;;;12.18;6.37;;;;;;;42.66;23.75;100208.06;1726618;82;21335;-68
2021/07/30 06:09:02;;;;;;;11.33;6.12;;;;;;;42.57;23.61;100199.73;1726667;81;21916;-74
2021/07/30 06:11:35;;;;;;;18.17;7.15;;;;;;;42.58;23.66;100201.34;1719508;82;21328;-68
2021/07/30 06:14:08;;;;;;;11.90;6.35;;;;;;;42.81;23.56;100196.86;1720812;82;21295;-69
2021/07/30 06:16:42;;;;;;;10.90;5.70;;;;;;;42.96;23.19;100202.20;1717759;82;21201;-69
2021/07/30 06:19:15;;;;;;;13.18;6.25;;;;;;;43.21;22.75;100199.53;1719960;82;21262;-74
2021/07/30 06:21:48;;;;;;;11.28;6.42;;;;;;;43.32;22.39;100205.56;1715222;82;21288;-72
2021/07/30 06:24:21;;;;;;;12.37;5.90;;;;;;;43.18;22.42;100198.86;1722612;82;21185;-70
2021/07/30 06:26:54;;;;;;;11.55;5.97;;;;;;;43.21;22.49;100199.53;1719405;82;21328;-70
2021/07/30 06:29:27;;;;;;;10.10;5.45;;;;;;;43.39;22.14;100207.13;1720029;82;21415;-73
2021/07/30 06:32:07;;;;;;;14.58;5.80;;;;;;;43.45;21.83;100197.98;1716089;82;21220;-72
2021/07/30 06:34:41;;;;;;;11.03;5.45;;;;;;;43.46;21.77;100203.73;1718420;82;21258;-75
2021/07/30 06:37:14;;;;;;;11.35;5.95;;;;;;;43.58;21.48;100206.39;1721148;82;21158;-76
2021/07/30 06:39:47;;;;;;;10.60;5.92;;;;;;;43.78;21.49;100210.81;1715277;82;21214;-75
2021/07/30 06:42:20;;;;;;;13.18;5.92;;;;;;;44.17;21.30;100213.92;1720378;82;21284;-71
2021/07/30 06:44:53;;;;;;;14.18;5.45;;;;;;;44.55;20.98;100210.97;1719557;82;21327;-75
2021/07/30 06:47:26;;;;;;;12.63;5.72;;;;;;;44.86;20.40;100208.05;1722473;82;21284;-72
2021/07/30 06:49:59;;;;;;;11.68;6.00;;;;;;;45.09;20.21;100203.37;1717128;82;21371;-71
2021/07/30 06:52:31;;;;;;;12.05;5.95;;;;;;;45.32;20.17;100204.76;1722295;82;21838;-72
2021/07/30 06:55:07;;;;;;;14.60;6.15;;;;;;;45.48;19.83;100209.55;1724153;81;21316;-75
2021/07/30 06:57:40;;;;;;;17.80;6.05;;;;;;;45.54;19.60;100197.03;1720450;82;21197;-72
2021/07/30 07:00:14;;;;;;;14.15;6.15;;;;;;;45.37;19.59;100188.67;1717507;82;21894;-72
2021/07/30 07:02:48;;;;;;;10.58;6.45;;;;;;;45.42;19.28;100186.97;1721683;82;21304;-72
2021/07/30 07:05:21;;;;;;;16.73;6.60;;;;;;;45.63;19.33;100192.05;1719852;82;21366;-75
2021/07/30 07:07:55;;;;;;;14.05;5.97;;;;;;;45.97;19.25;100198.51;1723379;82;21149;-70
2021/07/30 07:10:30;;;;;;;22.98;7.17;;;;;;;46.24;18.75;100202.03;1720655;82;21205;-73
2021/07/30 07:13:03;;;;;;;17.12;6.97;;;;;;;46.30;18.87;100200.52;1728349;82;22416;-75
2021/07/30 07:15:36;;;;;;;17.60;6.55;;;;;;;46.34;18.85;100196.64;1730327;82;21220;-69
2021/07/30 07:18:10;;;;;;;16.00;6.60;;;;;;;46.31;18.74;100194.62;1730828;82;21865;-74
2021/07/30 07:20:43;;;;;;;16.42;6.37;;;;;;;46.33;18.38;100195.61;1728580;82;22732;-71
2021/07/30 07:23:19;;;;;;;21.77;6.42;;;;;;;46.16;18.48;100185.91;1729721;82;21251;-73
2021/07/30 07:25:52;;;;;;;17.60;5.72;;;;;;;45.96;18.72;100187.19;1729164;82;21485;-73
2021/07/30 07:28:25;;;;;;;14.93;6.12;;;;;;;46.02;18.48;100183.77;1731044;82;21334;-72
2021/07/30 07:30:59;;;;;;;16.42;6.12;;;;;;;45.88;18.44;100175.22;1731434;82;21311;-75
2021/07/30 07:33:32;;;;;;;18.25;6.20;;;;;;;45.52;18.67;100170.34;1729553;82;21294;-71
2021/07/30 07:36:06;;;;;;;11.97;5.67;;;;;;;45.43;19.00;100165.05;1730857;82;21311;-72
2021/07/30 07:38:39;;;;;;;13.98;5.75;;;;;;;45.51;19.06;100164.58;1726380;82;21200;-71
2021/07/30 07:41:12;;;;;;;21.05;6.83;;;;;;;45.77;18.89;100154.92;1735235;82;21283;-70
2021/07/30 07:43:46;;;;;;;12.45;6.08;;;;;;;45.99;18.80;100154.65;1730095;82;21165;-69
2021/07/30 07:46:19;;;;;;;14.18;6.20;;;;;;;46.12;18.54;100159.37;1732362;80;22547;-72
2021/07/30 07:48:53;;;;;;;13.90;6.30;;;;;;;46.36;18.47;100152.75;1729725;82;21292;-72
2021/07/30 07:51:26;;;;;;;19.40;6.33;;;;;;;46.62;18.26;100146.33;1735750;82;21311;-72
2021/07/30 07:53:59;;;;;;;25.00;6.65;;;;;;;46.80;18.05;100143.75;1734142;82;21319;-75
2021/07/30 07:56:32;;;;;;;15.13;5.92;;;;;;;46.86;18.02;100136.11;1731419;80;21192;-75
2021/07/30 07:59:05;;;;;;;11.90;5.10;;;;;;;46.90;17.62;100140.28;1707995;83;21295;-75
2021/07/30 08:01:38;;;;;;;11.50;4.53;;;;;;;46.67;17.89;100141.22;1723242;81;21767;-73
2021/07/30 08:04:12;;;;;;;11.15;5.10;;;;;;;46.40;17.65;100143.92;1718738;81;21776;-77
2021/07/30 08:06:45;;;;;;;10.32;5.50;;;;;;;45.91;18.23;100134.94;1730696;80;21302;-74
2021/07/30 08:09:19;;;;;;;8.75;4.85;;;;;;;45.68;18.73;100137.00;1709707;83;22585;-74
2021/07/30 08:11:53;;;;;;;7.97;4.80;;;;;;;45.48;18.80;100132.13;1729416;81;21779;-71
2021/07/30 08:14:26;;;;;;;12.93;5.10;;;;;;;45.39;19.27;100129.65;1725536;81;21385;-74
2021/07/30 08:16:59;;;;;;;12.37;5.17;;;;;;;45.27;19.23;100127.09;1725979;81;21826;-72
2021/07/30 08:19:36;;;;;;;13.28;5.05;;;;;;;45.11;19.44;100126.99;1721456;81;21346;-76
2021/07/30 08:22:21;;;;;;;12.58;5.50;;;;;;;44.82;19.76;100127.06;1709312;82;21323;-76
2021/07/30 08:25:15;;;;;;;10.90;4.50;;;;;;;44.65;19.89;100120.64;1732707;83;21154;-73
2021/07/30 08:32:05;;;;;;;11.45;5.37;;;;;;;44.48;19.90;100115.00;1733868;81;21169;-73
2021/07/30 08:38:48;;;;;;;14.75;5.20;;;;;;;43.57;20.94;100117.16;1691901;82;22109;-71
2021/07/30 08:41:24;;;;;;;8.95;4.47;;;;;;;43.47;20.95;100115.75;1681024;85;21832;-70
2021/07/30 08:43:58;;;;;;;11.40;5.08;;;;;;;43.47;20.98;100117.91;1680997;85;21315;-71
2021/07/30 08:46:31;;;;;;;13.48;4.83;;;;;;;43.53;20.80;100112.36;1668824;85;21312;-71
2021/07/30 08:49:07;;;;;;;12.43;4.70;;;;;;;43.46;20.86;100103.12;1678943;85;21253;-72
2021/07/30 08:51:48;;;;;;;12.35;4.50;;;;;;;43.44;21.06;100102.69;1679601;85;21273;-72
2021/07/30 08:54:17;;;;;;;7.45;3.92;;;;;;;43.51;20.58;100106.41;1681038;85;21823;-70
2021/07/30 08:56:50;;;;;;;10.32;4.30;;;;;;;43.61;20.18;100100.11;1678932;85;21463;-71
2021/07/30 08:59:23;;;;;;;12.63;4.30;;;;;;;43.67;19.99;100095.32;1681047;85;21485;-73
2021/07/30 09:01:56;;;;;;;8.35;4.50;;;;;;;43.68;20.17;100099.72;1680854;85;21320;-74
2021/07/30 09:04:30;;;;;;;10.70;5.03;;;;;;;43.61;20.10;100092.64;1681107;85;21360;-74
2021/07/30 09:07:04;;;;;;;15.08;5.03;;;;;;;43.40;20.32;100097.08;1679583;84;21201;-73
2021/07/30 09:09:38;;;;;;;9.68;4.62;;;;;;;43.30;20.62;100082.46;1681049;85;21816;-74
2021/07/30 09:12:11;;;;;;;11.30;4.90;;;;;;;43.36;20.74;100085.18;1680811;85;21363;-72
2021/07/30 09:14:48;;;;;;;10.95;4.75;;;;;;;43.40;20.50;100077.78;1680987;85;21249;-70
2021/07/30 09:17:40;;;;;;;13.40;4.55;;;;;;;43.19;20.83;100086.91;1678918;85;21240;-73
2021/07/30 09:20:13;;;;;;;14.70;4.35;;;;;;;42.47;21.01;100083.25;1670899;85;21315;-71
2021/07/30 09:22:50;;;;;;;9.70;4.50;;;;;;;41.65;21.95;100080.84;1680521;84;21304;-71
2021/07/30 09:25:37;;;;;;;18.50;4.65;;;;;;;41.10;22.57;100079.84;1681014;85;21312;-68
2021/07/30 09:28:10;;;;;;;13.70;4.35;;;;;;;40.84;22.77;100080.15;1678690;85;21614;-68
2021/07/30 09:34:53;;;;;;;21.25;5.30;;;;;;;40.70;23.02;100074.96;1677529;85;21995;-72
2021/07/30 09:37:27;;;;;;;9.03;4.12;;;;;;;40.26;23.64;100069.69;1658103;85;21550;-71
2021/07/30 09:40:02;;;;;;;7.90;4.05;;;;;;;39.90;24.00;100066.75;1679204;84;21226;-71
2021/07/30 09:42:38;;;;;;;13.85;4.40;;;;;;;39.72;24.46;100060.38;1680740;85;21327;-71
2021/07/30 09:45:13;;;;;;;9.95;4.55;;;;;;;39.64;24.87;100061.48;1678970;85;21585;-68
2021/07/30 09:47:53;;;;;;;8.35;3.47;;;;;;;39.43;25.09;100067.45;1678900;85;21244;-71
2021/07/30 09:50:28;;;;;;;18.70;4.72;;;;;;;38.91;25.62;100060.61;1679069;85;21496;-70
2021/07/30 09:57:12;;;;;;;13.90;4.12;;;;;;;38.38;26.70;100053.66;1679209;85;21129;-70
2021/07/30 09:59:46;;;;;;;12.18;4.22;;;;;;;37.91;27.83;100054.65;1678246;84;22050;-69
2021/07/30 10:06:29;;;;;;;20.52;5.30;;;;;;;37.26;28.70;100059.33;1679236;85;21975;-70
2021/07/30 10:09:02;;;;;;;11.73;4.40;;;;;;;37.08;28.82;100050.27;1678713;85;21502;-70
2021/07/30 10:11:39;;;;;;;9.33;3.83;;;;;;;36.96;29.00;100050.06;1677660;84;21262;-68
2021/07/30 10:14:12;;;;;;;8.80;4.25;;;;;;;36.83;29.27;100054.47;1677673;85;21488;-70
2021/07/30 10:16:53;;;;;;;12.15;4.08;;;;;;;36.71;29.86;100045.28;1677674;84;21190;-70
2021/07/30 10:19:26;;;;;;;8.33;4.03;;;;;;;36.70;29.92;100043.66;1678580;84;21606;-68
2021/07/30 10:26:08;;;;;;;16.65;4.72;;;;;;;36.44;30.08;100034.77;1679185;85;21177;-72
2021/07/30 10:28:42;;;;;;;12.75;4.47;;;;;;;36.14;30.24;100036.87;1679169;85;21315;-70
2021/07/30 10:31:16;;;;;;;17.35;5.12;;;;;;;36.10;30.70;100027.72;1679171;85;22116;-69
2021/07/30 10:33:49;;;;;;;15.90;4.85;;;;;;;36.08;30.68;100027.23;1678934;84;21505;-72
2021/07/30 10:36:36;;;;;;;13.25;4.67;;;;;;;36.09;30.90;100024.73;1679168;85;21237;-71
2021/07/30 10:39:18;;;;;;;11.97;4.80;;;;;;;36.20;31.14;100028.02;1678791;85;21331;-73
2021/07/30 10:42:13;;;;;;;16.32;4.87;;;;;;;36.27;30.67;100021.58;1678262;84;21495;-69
2021/07/30 10:45:20;;;;;;;11.53;4.50;;;;;;;36.19;30.77;100013.59;1678563;85;21347;-70
2021/07/30 10:48:16;;;;;;;15.38;4.92;;;;;;;36.16;31.17;100016.92;1679649;85;22105;-72
2021/07/30 10:50:56;;;;;;;11.55;5.22;;;;;;;36.17;31.28;100013.09;1678068;85;21234;-69
2021/07/30 10:53:42;;;;;;;16.35;5.67;;;;;;;36.32;30.73;100008.62;1678933;85;21351;-70
2021/07/30 10:56:27;;;;;;;11.78;5.58;;;;;;;36.33;30.50;100009.41;1678018;85;21357;-70
2021/07/30 10:59:06;;;;;;;10.00;5.80;;;;;;;36.14;30.87;100012.89;1679137;85;21316;-71
2021/07/30 11:01:45;;;;;;;15.48;5.35;;;;;;;36.07;31.00;100009.80;1677606;84;21198;-75
2021/07/30 11:04:18;;;;;;;19.87;5.65;;;;;;;36.08;31.22;100005.42;1678429;85;21363;-73
2021/07/30 11:06:55;;;;;;;12.65;6.37;;;;;;;36.06;31.48;99998.12;1679233;85;21464;-72
2021/07/30 11:09:33;;;;;;;17.50;6.40;;;;;;;36.04;31.23;99999.55;1678854;85;21506;-73
2021/07/30 11:12:07;;;;;;;17.82;7.00;;;;;;;36.08;31.43;99989.62;1677576;84;21214;-70
2021/07/30 11:14:42;;;;;;;17.27;6.65;;;;;;;36.12;31.43;99989.24;1666469;85;21387;-71
2021/07/30 11:17:16;;;;;;;18.92;6.53;;;;;;;36.16;31.64;99989.67;1678756;85;21654;-73
2021/07/30 11:19:50;;;;;;;16.12;6.42;;;;;;;36.17;31.89;99984.48;1680774;85;22022;-72
2021/07/30 11:22:26;;;;;;;16.55;6.45;;;;;;;36.19;32.01;99995.05;1678937;85;21312;-69
2021/07/30 11:24:59;;;;;;;17.65;5.83;;;;;;;36.15;32.11;99994.08;1678285;85;21347;-73
2021/07/30 11:27:31;;;;;;;;;;;;;;;36.01;32.43;99985.17;1683499;85;21780;-73
2021/07/30 11:30:05;;;;;;;17.48;5.08;;;;;;;35.93;32.58;99981.78;1680926;84;20678;-71
2021/07/30 11:32:38;;;;;;;9.85;5.15;;;;;;;35.83;32.14;99983.65;1678436;85;21232;-71
2021/07/30 11:35:11;;;;;;;;;;;;;;;35.71;32.06;99988.03;1682960;84;21650;-72
2021/07/30 11:37:45;;;;;;;11.18;4.17;;;;;;;35.57;31.48;99986.72;1669010;85;20207;-72
2021/07/30 11:40:18;;;;;;;10.90;4.70;;;;;;;35.52;30.51;99992.27;1680917;85;21387;-73
2021/07/30 11:42:52;;;;;;;11.75;5.35;;;;;;;35.54;30.90;99982.45;1701518;84;22183;-72
2021/07/30 11:45:27;;;;;;;13.78;5.90;;;;;;;35.54;31.19;99991.41;1705953;84;21285;-71
2021/07/30 11:48:11;;;;;;;15.40;5.20;;;;;;;35.57;31.52;99989.44;1711749;84;21319;-70
2021/07/30 11:50:44;;;;;;;15.88;5.50;;;;;;;35.45;31.85;99983.70;1711164;84;21323;-73
2021/07/30 11:53:17;;;;;;;;;;;;;;;35.25;32.16;99978.72;1714239;84;21205;-71
2021/07/30 11:55:56;;;;;;;16.65;5.65;;;;;;;35.04;32.57;99983.77;1710521;84;20418;-73
2021/07/30 11:58:29;;;;;;;9.78;4.80;;;;;;;34.84;33.06;99971.92;1711648;84;21316;-68
2021/07/30 12:01:10;;;;;;;;;;;;;;;34.66;33.01;99978.79;1711559;84;21315;-71
2021/07/30 12:03:45;;;;;;;14.35;5.70;;;;;;;34.45;33.28;99975.63;1709488;84;20267;-68
2021/07/30 12:06:20;;;;;;;15.20;4.50;;;;;;;34.31;33.36;99967.45;1709261;84;21440;-68
2021/07/30 12:13:04;;;;;;;18.30;5.08;;;;;;;34.31;33.04;99966.09;1711548;84;21204;-69
2021/07/30 12:15:38;;;;;;;17.85;5.08;;;;;;;34.36;33.35;99967.91;1708835;84;21661;-68
2021/07/30 12:18:13;;;;;;;19.02;5.58;;;;;;;34.35;33.82;99954.87;1708011;84;21189;-72
2021/07/30 12:20:48;;;;;;;18.65;5.50;;;;;;;34.42;33.83;99946.31;1711508;84;21311;-68
2021/07/30 12:23:21;;;;;;;15.72;5.00;;;;;;;34.40;33.64;99947.98;1709059;84;21530;-71
2021/07/30 12:30:06;;;;;;;16.12;5.67;;;;;;;34.19;34.78;99937.23;1711745;84;21172;-70
2021/07/30 12:36:49;;;;;;;11.15;4.72;;;;;;;34.01;35.35;99927.19;1702727;84;21206;-73
